Аэропорт: Курск-Восточный . Курск

ICAO: UUOK

METAR:
2018/11/19 10:00
UUOK 191000Z 33003MPS CAVOK M01/M06 Q1028 R12/CLRD65 NOSIG RMK QFE753/1004
METAR:
Информация по данной станции не доступна